Time;durP1;ratioP1;P1;durP2;ratioP2;P2;SDS_P1;SDS_P2;PMS_P1;PMS_P2;Temp;Humidity;BMP_temperature;BMP_pressure;BME280_temperature;BME280_humidity;BME280_pressure;Samples;Min_cycle;Max_cycle;Signal;HPM_P1;HPM_P2
2023/03/06 00:00:38;;;;;;;4.45;1.20;;;3.70;99.90;;;;;;5044711;28;20060;-80
2023/03/06 00:03:04;;;;;;;5.70;2.08;;;3.80;99.90;;;;;;5064663;28;20039;-79
2023/03/06 00:05:29;;;;;;;4.68;1.30;;;3.70;99.90;;;;;;5046429;28;20036;-80
2023/03/06 00:07:55;;;;;;;4.80;1.25;;;3.90;99.90;;;;;;5057328;28;20124;-79
2023/03/06 00:10:27;;;;;;;3.95;1.17;;;3.90;99.90;;;;;;5058563;28;20096;-79
2023/03/06 00:12:58;;;;;;;5.28;1.58;;;3.70;99.90;;;;;;5042473;28;20071;-79
2023/03/06 00:15:25;;;;;;;3.85;1.08;;;3.70;99.90;;;;;;5037966;28;20045;-79
2023/03/06 00:17:54;;;;;;;6.22;1.00;;;3.70;99.90;;;;;;5058140;28;20060;-78
2023/03/06 00:20:21;;;;;;;3.70;0.98;;;3.80;99.90;;;;;;5044943;28;20480;-80
2023/03/06 00:22:48;;;;;;;5.32;1.98;;;3.70;99.90;;;;;;5062632;28;20037;-78
2023/03/06 00:25:19;;;;;;;2.20;1.02;;;3.80;99.90;;;;;;5066579;28;20036;-80
2023/03/06 00:27:45;;;;;;;4.75;1.05;;;3.80;99.90;;;;;;5055556;28;20410;-78
2023/03/06 00:30:15;;;;;;;5.30;1.13;;;3.80;99.90;;;;;;5040032;28;20055;-80
2023/03/06 00:32:44;;;;;;;3.80;1.25;;;3.80;99.90;;;;;;5059186;28;20066;-80
2023/03/06 00:35:11;;;;;;;3.10;1.10;;;3.80;99.90;;;;;;5038281;28;20108;-79
2023/03/06 00:37:37;;;;;;;5.05;1.30;;;3.80;99.90;;;;;;5050989;28;20051;-78
2023/03/06 00:40:09;;;;;;;5.28;2.75;;;4.00;99.90;;;;;;5034727;28;20055;-80
2023/03/06 00:42:34;;;;;;;2.70;1.25;;;3.80;99.90;;;;;;5043682;28;20459;-80
2023/03/06 00:45:00;;;;;;;2.90;1.25;;;3.80;99.90;;;;;;5041475;28;20048;-80
2023/03/06 00:47:26;;;;;;;5.88;1.48;;;4.10;99.90;;;;;;5043324;28;20059;-80
2023/03/06 00:49:52;;;;;;;4.10;1.38;;;3.80;99.90;;;;;;5043900;28;20586;-79
2023/03/06 00:52:17;;;;;;;6.07;1.77;;;3.70;99.90;;;;;;5064557;28;20125;-78
2023/03/06 00:54:46;;;;;;;5.57;1.48;;;3.70;99.90;;;;;;5041737;28;20043;-79
2023/03/06 00:57:12;;;;;;;4.53;1.30;;;3.70;99.90;;;;;;5055030;28;20105;-80
2023/03/06 00:59:38;;;;;;;4.93;1.38;;;3.70;99.90;;;;;;5055036;28;20560;-79
2023/03/06 01:02:06;;;;;;;3.80;1.80;;;3.70;99.90;;;;;;5011822;28;20055;-79
2023/03/06 01:04:32;;;;;;;2.70;1.27;;;3.70;99.90;;;;;;5036460;28;20037;-79
2023/03/06 01:06:58;;;;;;;3.42;1.20;;;3.60;99.90;;;;;;5049957;28;20049;-78
2023/03/06 01:09:28;;;;;;;7.03;1.45;;;3.70;99.90;;;;;;5055296;22;20521;-81
2023/03/06 01:11:54;;;;;;;7.10;1.20;;;3.70;99.90;;;;;;5036535;28;20049;-80
2023/03/06 01:14:20;;;;;;;1.90;0.98;;;3.70;99.90;;;;;;5015796;28;20049;-82
2023/03/06 01:16:46;;;;;;;2.95;1.10;;;3.60;99.90;;;;;;5038221;28;20039;-80
2023/03/06 01:19:12;;;;;;;3.05;1.75;;;3.60;99.90;;;;;;5005426;28;20053;-81
2023/03/06 01:21:38;;;;;;;4.35;1.23;;;3.60;99.90;;;;;;5019027;28;20033;-80
2023/03/06 01:24:07;;;;;;;5.30;1.17;;;3.60;99.90;;;;;;5008640;28;20039;-80
2023/03/06 01:26:33;;;;;;;3.35;1.10;;;3.60;99.90;;;;;;5010758;28;20061;-81
2023/03/06 01:28:59;;;;;;;6.20;1.20;;;3.60;99.90;;;;;;5030295;28;20119;-78
2023/03/06 01:31:30;;;;;;;2.90;0.95;;;3.90;99.90;;;;;;5038386;28;20505;-79
2023/03/06 01:33:56;;;;;;;2.85;1.05;;;3.60;99.90;;;;;;5028667;28;20092;-79
2023/03/06 01:36:22;;;;;;;1.70;0.82;;;3.60;99.90;;;;;;5034154;28;20501;-80
2023/03/06 01:38:47;;;;;;;6.75;0.80;;;3.70;99.90;;;;;;5022523;28;20653;-80
2023/03/06 01:41:14;;;;;;;2.38;0.80;;;3.60;99.90;;;;;;5007699;28;20037;-80
2023/03/06 01:43:43;;;;;;;4.80;0.95;;;3.80;99.90;;;;;;5010675;28;20069;-81
2023/03/06 01:46:27;;;;;;;3.30;0.80;;;3.60;99.90;;;;;;4999127;28;20104;-84
2023/03/06 01:49:19;;;;;;;4.40;0.70;;;3.60;99.90;;;;;;5007029;28;20045;-79
2023/03/06 01:51:47;;;;;;;2.97;1.00;;;3.50;99.90;;;;;;5039477;28;20084;-80
2023/03/06 01:54:22;;;;;;;2.63;0.93;;;3.50;99.90;;;;;;5043223;28;20045;-82
2023/03/06 01:56:52;;;;;;;2.22;0.70;;;3.60;99.90;;;;;;5023455;28;20048;-80
2023/03/06 01:59:20;;;;;;;4.28;0.70;;;3.60;99.90;;;;;;5005921;28;20413;-81
2023/03/06 02:01:46;;;;;;;1.80;0.60;;;3.60;99.90;;;;;;5028503;28;20428;-85
2023/03/06 02:04:12;;;;;;;2.05;0.60;;;3.60;99.90;;;;;;5013443;28;20052;-79
2023/03/06 02:06:43;;;;;;;1.88;0.55;;;3.80;99.90;;;;;;5001710;28;20081;-80
2023/03/06 02:09:10;;;;;;;1.02;0.50;;;3.60;99.90;;;;;;5009064;28;20049;-80
2023/03/06 02:11:36;;;;;;;1.73;0.70;;;3.60;99.90;;;;;;5028174;28;20034;-80
2023/03/06 02:14:02;;;;;;;1.30;0.65;;;3.60;99.90;;;;;;5006637;28;20110;-80
2023/03/06 02:16:31;;;;;;;1.13;0.50;;;3.60;99.90;;;;;;5044923;28;20052;-79
2023/03/06 02:19:00;;;;;;;0.40;0.20;;;3.60;99.90;;;;;;5014989;28;20037;-81
2023/03/06 02:21:34;;;;;;;0.68;0.40;;;3.60;99.90;;;;;;5025822;28;20058;-79
2023/03/06 02:24:26;;;;;;;2.95;0.43;;;3.60;99.90;;;;;;5033823;28;20083;-77
2023/03/06 02:26:53;;;;;;;0.70;0.30;;;3.60;99.90;;;;;;5049143;28;20037;-80
2023/03/06 02:29:26;;;;;;;0.85;0.38;;;3.80;99.90;;;;;;5032510;28;20128;-81
2023/03/06 02:31:51;;;;;;;4.72;0.60;;;3.50;99.90;;;;;;5012827;28;20121;-81
2023/03/06 02:34:20;;;;;;;0.30;0.28;;;3.50;99.90;;;;;;5018845;28;20182;-82
2023/03/06 02:36:52;;;;;;;0.60;0.38;;;3.50;99.90;;;;;;5038304;28;20521;-82
2023/03/06 02:39:22;;;;;;;0.88;0.40;;;3.50;99.90;;;;;;5017223;28;20048;-80
2023/03/06 02:41:48;;;;;;;1.30;0.60;;;3.50;99.90;;;;;;5018639;28;20049;-81
2023/03/06 02:44:13;;;;;;;0.50;0.50;;;3.50;99.90;;;;;;5028163;28;23106;-79
2023/03/06 02:46:39;;;;;;;1.52;0.40;;;3.50;99.90;;;;;;5039080;28;20111;-81
2023/03/06 02:49:08;;;;;;;1.05;0.65;;;3.40;99.90;;;;;;5016226;28;20056;-80
2023/03/06 02:51:35;;;;;;;1.27;0.60;;;3.40;99.90;;;;;;5001939;28;20053;-81
2023/03/06 02:54:00;;;;;;;0.45;0.40;;;3.40;99.90;;;;;;5031017;28;20045;-80
2023/03/06 02:56:26;;;;;;;0.82;0.50;;;3.30;99.90;;;;;;5049929;28;20038;-81
2023/03/06 02:58:52;;;;;;;0.80;0.60;;;3.30;99.90;;;;;;5001275;28;20041;-80
2023/03/06 03:01:17;;;;;;;1.55;0.63;;;3.30;99.90;;;;;;5022903;28;20041;-81
2023/03/06 03:03:46;;;;;;;1.00;0.57;;;3.30;99.90;;;;;;5009317;28;20084;-80
2023/03/06 03:06:12;;;;;;;0.82;0.50;;;3.20;99.90;;;;;;4998053;28;20037;-79
2023/03/06 03:08:38;;;;;;;2.42;0.60;;;3.10;99.90;;;;;;5030507;28;20045;-81
2023/03/06 03:11:08;;;;;;;1.42;0.57;;;3.00;99.90;;;;;;5031142;28;20080;-81
2023/03/06 03:13:34;;;;;;;1.17;0.70;;;3.00;99.90;;;;;;5023955;28;20056;-81
2023/03/06 03:16:15;;;;;;;1.20;0.73;;;2.90;99.90;;;;;;5029703;28;20041;-81
2023/03/06 03:18:46;;;;;;;1.38;0.75;;;2.90;99.90;;;;;;5008844;28;20045;-80
2023/03/06 03:21:14;;;;;;;1.45;0.70;;;2.90;99.90;;;;;;5023431;28;20526;-80
2023/03/06 03:23:40;;;;;;;1.75;0.70;;;3.20;99.90;;;;;;5037720;28;20061;-78
2023/03/06 03:26:08;;;;;;;1.65;0.68;;;2.80;99.90;;;;;;5011062;28;20103;-79
2023/03/06 03:28:34;;;;;;;3.13;0.88;;;2.80;99.90;;;;;;5044388;28;20053;-80
2023/03/06 03:31:05;;;;;;;1.75;0.60;;;2.70;99.90;;;;;;5028277;28;20046;-79
2023/03/06 03:33:31;;;;;;;1.48;0.70;;;2.70;99.90;;;;;;4997118;28;20077;-81
2023/03/06 03:36:02;;;;;;;1.80;0.77;;;2.70;99.90;;;;;;5010040;28;20115;-81
2023/03/06 03:38:34;;;;;;;1.45;0.60;;;2.60;99.90;;;;;;5020039;28;20143;-80
2023/03/06 03:41:06;;;;;;;1.98;0.55;;;2.60;99.90;;;;;;5004855;28;20395;-82
2023/03/06 03:43:32;;;;;;;2.20;0.80;;;2.60;99.90;;;;;;5027033;28;20038;-80
2023/03/06 03:45:58;;;;;;;1.00;0.68;;;2.60;99.90;;;;;;5012919;28;20416;-81
2023/03/06 03:48:23;;;;;;;3.78;0.80;;;2.60;99.90;;;;;;5027281;28;20049;-81
2023/03/06 03:50:49;;;;;;;2.45;0.85;;;2.60;99.90;;;;;;5023052;28;20084;-82
2023/03/06 03:53:15;;;;;;;4.07;1.10;;;2.60;99.90;;;;;;5021292;28;20042;-80
2023/03/06 03:55:40;;;;;;;4.72;0.93;;;2.60;99.90;;;;;;5018056;28;20488;-80
2023/03/06 03:58:09;;;;;;;1.05;0.50;;;2.60;99.90;;;;;;5023867;28;20037;-80
2023/03/06 04:00:34;;;;;;;1.08;0.65;;;2.60;99.90;;;;;;5032294;28;20040;-81
2023/03/06 04:03:00;;;;;;;2.42;0.80;;;2.60;99.90;;;;;;5039912;28;20041;-80
2023/03/06 04:05:26;;;;;;;2.42;0.80;;;2.60;99.90;;;;;;5019308;28;20033;-80
2023/03/06 04:07:51;;;;;;;3.50;0.75;;;2.60;99.90;;;;;;5024556;28;20041;-80
2023/03/06 04:10:17;;;;;;;3.88;0.95;;;2.60;99.90;;;;;;5004152;28;20654;-80
2023/03/06 04:12:46;;;;;;;2.22;1.00;;;2.70;99.90;;;;;;5029105;28;20033;-81
2023/03/06 04:15:11;;;;;;;3.25;1.10;;;3.20;99.90;;;;;;5007934;28;20243;-81
2023/03/06 04:17:37;;;;;;;2.10;1.15;;;2.70;99.90;;;;;;5023525;28;20132;-80
2023/03/06 04:20:03;;;;;;;2.97;1.20;;;2.60;99.90;;;;;;5025929;28;20053;-82
2023/03/06 04:22:29;;;;;;;2.28;1.33;;;2.70;99.90;;;;;;5035923;28;20069;-81
2023/03/06 04:24:58;;;;;;;3.72;1.27;;;3.10;99.90;;;;;;4991287;28;20048;-81
2023/03/06 04:27:23;;;;;;;2.42;1.33;;;2.70;99.90;;;;;;5042842;28;20034;-80
2023/03/06 04:29:49;;;;;;;1.92;1.05;;;2.60;99.90;;;;;;5027432;28;20077;-82
2023/03/06 04:32:15;;;;;;;2.78;1.17;;;2.60;99.90;;;;;;5028185;28;20790;-80
2023/03/06 04:34:40;;;;;;;4.32;1.23;;;2.70;99.90;;;;;;5030658;28;20046;-80
2023/03/06 04:37:11;;;;;;;3.97;1.30;;;2.60;99.90;;;;;;5020802;28;20127;-80
2023/03/06 04:39:37;;;;;;;2.70;1.30;;;2.60;99.90;;;;;;5010649;28;20058;-80
2023/03/06 04:42:03;;;;;;;5.13;1.35;;;2.50;99.90;;;;;;5021280;28;20117;-79
2023/03/06 04:44:28;;;;;;;3.53;1.73;;;2.50;99.90;;;;;;4993191;28;20041;-81
2023/03/06 04:46:54;;;;;;;2.97;1.50;;;2.60;99.90;;;;;;4998593;28;20049;-81
2023/03/06 04:49:20;;;;;;;2.42;1.10;;;2.60;99.90;;;;;;5030435;28;20037;-81
2023/03/06 04:51:49;;;;;;;3.53;1.20;;;2.70;99.90;;;;;;5024100;28;20056;-80
2023/03/06 04:54:14;;;;;;;4.15;1.35;;;2.60;99.90;;;;;;5003009;28;20033;-80
2023/03/06 04:56:40;;;;;;;3.00;1.20;;;2.70;99.90;;;;;;4979775;28;20029;-82
2023/03/06 04:59:06;;;;;;;3.47;1.33;;;3.30;99.90;;;;;;5019484;28;20033;-81
2023/03/06 05:01:34;;;;;;;2.20;1.10;;;2.60;99.90;;;;;;5010042;28;20046;-81
2023/03/06 05:04:00;;;;;;;2.83;1.20;;;2.60;99.90;;;;;;5019652;28;20035;-80
2023/03/06 05:06:28;;;;;;;3.35;1.30;;;2.90;99.90;;;;;;5012244;28;20029;-81
2023/03/06 05:08:54;;;;;;;2.63;1.50;;;2.60;99.90;;;;;;5036976;28;20571;-80
2023/03/06 05:11:20;;;;;;;4.28;1.30;;;2.50;99.90;;;;;;5002165;28;20053;-81
2023/03/06 05:13:49;;;;;;;3.47;1.10;;;2.50;99.90;;;;;;5020356;28;20101;-81
2023/03/06 05:16:14;;;;;;;2.65;1.38;;;2.50;99.90;;;;;;5018560;28;20049;-79
2023/03/06 05:18:40;;;;;;;1.92;1.20;;;2.50;99.90;;;;;;5000466;28;20048;-80
2023/03/06 05:21:09;;;;;;;2.50;1.40;;;2.50;99.90;;;;;;5018696;28;20124;-80
2023/03/06 05:23:37;;;;;;;4.28;1.35;;;2.60;99.90;;;;;;5030675;28;20049;-80
2023/03/06 05:26:08;;;;;;;2.22;1.05;;;2.90;99.90;;;;;;5014681;28;20049;-80
2023/03/06 05:28:34;;;;;;;3.67;1.70;;;2.50;99.90;;;;;;5028532;28;20034;-80
2023/03/06 05:31:00;;;;;;;2.65;1.38;;;2.50;99.90;;;;;;5048108;28;20049;-80
2023/03/06 05:33:26;;;;;;;5.50;1.85;;;2.40;99.90;;;;;;4993338;28;20810;-78
2023/03/06 05:35:52;;;;;;;22.02;11.48;;;2.30;99.90;;;;;;5012217;28;20055;-80
2023/03/06 05:38:17;;;;;;;20.38;9.65;;;2.20;99.90;;;;;;5012952;28;20331;-81
2023/03/06 05:40:44;;;;;;;19.08;10.25;;;2.20;99.90;;;;;;5036443;28;20042;-83
2023/03/06 05:43:11;;;;;;;27.63;14.00;;;2.10;99.90;;;;;;5035466;28;20116;-80
2023/03/06 05:45:38;;;;;;;37.65;21.58;;;2.00;99.90;;;;;;5018364;28;20054;-81
2023/03/06 05:48:04;;;;;;;42.45;21.98;;;2.10;99.90;;;;;;5024779;28;20044;-81
2023/03/06 05:50:30;;;;;;;30.75;19.60;;;2.00;99.90;;;;;;5003305;28;20053;-83
2023/03/06 05:52:55;;;;;;;18.15;11.30;;;2.00;99.90;;;;;;4996121;28;20095;-77
2023/03/06 05:55:23;;;;;;;14.82;9.25;;;2.10;99.90;;;;;;5003214;28;20052;-80
2023/03/06 05:57:52;;;;;;;7.88;5.07;;;2.10;99.90;;;;;;5033747;28;20049;-81
2023/03/06 06:00:18;;;;;;;4.15;2.17;;;2.10;99.90;;;;;;5020764;28;20037;-80
2023/03/06 06:02:45;;;;;;;3.95;1.75;;;2.00;99.90;;;;;;5028298;28;20045;-80
2023/03/06 06:05:14;;;;;;;4.25;2.70;;;2.00;99.90;;;;;;5027887;28;20056;-81
2023/03/06 06:07:40;;;;;;;6.22;3.75;;;2.00;99.90;;;;;;5035930;28;20119;-80
2023/03/06 06:10:10;;;;;;;6.32;3.15;;;2.00;99.90;;;;;;5013047;28;20137;-80
2023/03/06 06:12:36;;;;;;;7.70;3.92;;;2.00;99.90;;;;;;5004379;28;20052;-79
2023/03/06 06:15:02;;;;;;;5.88;2.65;;;2.00;99.90;;;;;;5044846;28;20108;-77
2023/03/06 06:17:30;;;;;;;3.75;2.15;;;2.00;99.90;;;;;;5021708;28;20041;-80
2023/03/06 06:19:56;;;;;;;3.55;2.13;;;2.00;99.90;;;;;;4972664;28;20057;-81
2023/03/06 06:22:22;;;;;;;5.05;2.45;;;2.00;99.90;;;;;;5023541;28;20129;-80
2023/03/06 06:24:48;;;;;;;3.00;1.80;;;2.00;99.90;;;;;;5032958;28;20040;-81
2023/03/06 06:27:13;;;;;;;4.82;2.03;;;2.00;99.90;;;;;;5011795;28;20052;-80
2023/03/06 06:29:39;;;;;;;4.47;2.33;;;2.00;99.90;;;;;;5032652;22;20099;-56
2023/03/06 06:32:05;;;;;;;4.20;2.30;;;1.90;99.90;;;;;;5001369;28;20049;-56
2023/03/06 06:34:31;;;;;;;5.60;2.25;;;1.90;99.90;;;;;;5002156;28;20069;-57
2023/03/06 06:36:56;;;;;;;3.40;2.08;;;1.90;99.90;;;;;;4988873;28;20049;-57
2023/03/06 06:39:23;;;;;;;5.00;2.67;;;1.90;99.90;;;;;;5005800;28;20049;-57
2023/03/06 06:41:50;;;;;;;5.78;2.60;;;1.90;99.90;;;;;;5019535;28;20456;-56
2023/03/06 06:44:17;;;;;;;5.05;2.50;;;1.90;99.90;;;;;;4989868;28;20443;-57
2023/03/06 06:46:44;;;;;;;5.30;2.70;;;1.90;99.90;;;;;;5005195;28;20450;-57
2023/03/06 06:49:13;;;;;;;7.50;3.15;;;2.00;99.90;;;;;;5003621;28;20038;-56
2023/03/06 06:51:40;;;;;;;5.50;2.65;;;1.90;99.90;;;;;;5003149;28;20454;-56
2023/03/06 06:54:07;;;;;;;5.97;2.78;;;2.00;99.90;;;;;;5006478;28;20045;-57
2023/03/06 06:56:35;;;;;;;9.75;5.22;;;2.00;99.90;;;;;;5000595;28;20042;-57
2023/03/06 06:59:01;;;;;;;6.50;3.70;;;2.00;99.90;;;;;;5018081;28;20412;-57
2023/03/06 07:01:27;;;;;;;6.38;3.55;;;2.10;99.90;;;;;;4981093;28;20123;-57
2023/03/06 07:03:53;;;;;;;8.25;3.65;;;2.20;99.90;;;;;;5005959;28;20144;-57
2023/03/06 07:06:19;;;;;;;6.80;3.72;;;2.50;99.90;;;;;;5004000;28;20630;-56
2023/03/06 07:08:45;;;;;;;8.23;3.47;;;3.00;99.90;;;;;;5028811;22;20454;-61
2023/03/06 07:11:14;;;;;;;6.88;3.05;;;3.10;99.90;;;;;;5051224;28;20039;-62
2023/03/06 07:13:40;;;;;;;6.95;2.60;;;3.40;99.90;;;;;;5065336;28;20115;-61
2023/03/06 07:16:09;;;;;;;5.85;3.30;;;3.40;99.90;;;;;;5047222;28;20045;-63
2023/03/06 07:18:34;;;;;;;5.70;2.40;;;3.50;99.90;;;;;;5045061;28;20183;-60
2023/03/06 07:21:00;;;;;;;5.55;2.20;;;3.20;99.90;;;;;;5065310;28;20041;-62
2023/03/06 07:23:26;;;;;;;5.95;1.98;;;3.00;99.90;;;;;;5058534;28;20048;-61
2023/03/06 07:25:53;;;;;;;4.35;2.00;;;2.80;99.90;;;;;;5062057;28;20037;-61
2023/03/06 07:28:20;;;;;;;3.42;1.60;;;2.70;99.90;;;;;;5065753;28;20135;-60
2023/03/06 07:30:46;;;;;;;3.58;1.67;;;2.70;99.90;;;;;;5062988;28;20093;-62
2023/03/06 07:33:12;;;;;;;5.22;2.33;;;2.60;99.90;;;;;;5058039;28;20032;-60
2023/03/06 07:35:40;;;;;;;4.32;1.95;;;2.60;99.90;;;;;;5054646;28;20057;-61
2023/03/06 07:38:05;;;;;;;5.38;1.45;;;2.60;99.90;;;;;;5048196;28;20175;-61
2023/03/06 07:40:34;;;;;;;4.00;1.33;;;2.60;99.90;;;;;;5031381;28;20119;-62
2023/03/06 07:42:59;;;;;;;3.53;1.50;;;2.60;99.90;;;;;;5045158;28;20072;-61
2023/03/06 07:45:26;;;;;;;6.63;1.60;;;2.70;99.90;;;;;;5046565;28;20067;-60
2023/03/06 07:47:52;;;;;;;4.35;1.90;;;2.80;99.90;;;;;;5057855;28;20543;-61
2023/03/06 07:50:19;;;;;;;4.25;1.30;;;2.70;99.90;;;;;;5059238;28;20032;-62
2023/03/06 07:52:47;;;;;;;3.17;1.38;;;2.80;99.90;;;;;;5062700;28;20041;-62
2023/03/06 07:55:16;;;;;;;3.95;1.48;;;2.80;99.90;;;;;;5061821;28;20059;-63
2023/03/06 07:57:45;;;;;;;4.32;1.60;;;2.80;99.90;;;;;;5063078;28;20074;-61
2023/03/06 08:00:14;;;;;;;4.15;1.77;;;2.80;99.90;;;;;;5063710;28;20047;-60
2023/03/06 08:02:40;;;;;;;4.13;1.50;;;2.80;99.90;;;;;;5063434;28;21041;-61
2023/03/06 08:05:10;;;;;;;5.40;1.90;;;2.80;99.90;;;;;;5044389;28;20036;-61
2023/03/06 08:07:39;;;;;;;3.90;1.60;;;3.00;99.90;;;;;;5044554;28;20049;-61
2023/03/06 08:10:05;;;;;;;5.07;1.63;;;3.20;99.90;;;;;;5044590;28;20101;-61
2023/03/06 08:12:31;;;;;;;4.25;1.42;;;3.40;99.90;;;;;;5057511;28;20074;-61
2023/03/06 08:14:57;;;;;;;7.45;1.83;;;3.60;99.90;;;;;;5020498;28;20080;-60
2023/03/06 08:17:23;;;;;;;3.75;1.40;;;3.80;99.90;;;;;;5058605;28;20032;-61
2023/03/06 08:19:49;;;;;;;2.42;1.45;;;4.00;99.90;;;;;;5033114;28;20076;-62
2023/03/06 08:22:14;;;;;;;3.58;1.27;;;4.10;99.90;;;;;;5035062;28;20048;-63
2023/03/06 08:24:40;;;;;;;6.97;1.45;;;4.20;99.90;;;;;;5051719;28;20491;-60
2023/03/06 08:27:06;;;;;;;4.13;1.10;;;4.30;99.90;;;;;;5031899;28;20048;-58
2023/03/06 08:29:31;;;;;;;5.47;1.60;;;4.30;99.90;;;;;;5027949;28;20048;-60
2023/03/06 08:31:57;;;;;;;3.53;1.00;;;4.50;99.90;;;;;;5057091;28;20116;-60
2023/03/06 08:34:24;;;;;;;4.10;1.02;;;4.60;99.90;;;;;;5027475;28;20124;-63
2023/03/06 08:36:50;;;;;;;4.32;1.15;;;4.80;99.90;;;;;;5038312;28;20068;-61
2023/03/06 08:39:16;;;;;;;4.13;0.95;;;4.90;99.90;;;;;;5035372;28;20609;-61
2023/03/06 08:41:45;;;;;;;4.70;1.27;;;5.10;99.90;;;;;;5052246;28;22249;-63
2023/03/06 08:44:14;;;;;;;3.25;0.90;;;5.10;99.90;;;;;;5037857;28;20510;-61
2023/03/06 08:46:40;;;;;;;2.08;0.70;;;5.30;99.90;;;;;;5040475;28;20036;-62
2023/03/06 08:49:06;;;;;;;3.20;0.80;;;5.40;99.90;;;;;;5059960;28;20094;-64
2023/03/06 08:51:32;;;;;;;3.53;1.15;;;5.50;99.90;;;;;;5035298;28;20061;-64
2023/03/06 08:53:58;;;;;;;2.30;1.10;;;5.50;99.90;;;;;;5051651;28;20395;-57
2023/03/06 08:56:30;;;;;;;6.93;1.25;;;5.50;99.90;;;;;;5038894;28;20041;-64
2023/03/06 08:58:57;;;;;;;3.10;1.10;;;5.40;99.90;;;;;;5019531;28;20044;-59
2023/03/06 09:01:29;;;;;;;6.22;0.98;;;5.50;99.90;;;;;;5031702;28;20076;-61
2023/03/06 09:03:59;;;;;;;4.20;1.15;;;5.60;99.90;;;;;;5047040;28;20049;-61
2023/03/06 09:06:28;;;;;;;3.45;1.05;;;5.60;99.90;;;;;;5042426;28;20480;-63
2023/03/06 09:08:57;;;;;;;4.05;1.00;;;5.50;99.90;;;;;;5055275;28;20076;-62
2023/03/06 09:11:25;;;;;;;5.18;1.10;;;5.30;99.90;;;;;;5057241;28;20036;-63
2023/03/06 09:13:51;;;;;;;3.97;0.90;;;5.20;99.90;;;;;;5057698;28;20053;-61
2023/03/06 09:16:17;;;;;;;6.55;1.30;;;5.30;99.90;;;;;;5058704;28;20660;-57
2023/03/06 09:18:43;;;;;;;4.20;1.05;;;5.40;99.90;;;;;;5043309;28;20096;-62
2023/03/06 09:21:09;;;;;;;5.28;1.10;;;5.40;99.90;;;;;;5040506;28;20041;-61
2023/03/06 09:23:38;;;;;;;3.63;1.17;;;5.30;99.90;;;;;;5060881;28;20043;-61
2023/03/06 09:26:05;;;;;;;3.63;0.95;;;5.40;99.90;;;;;;5053793;28;20039;-64
2023/03/06 09:28:31;;;;;;;3.97;1.10;;;5.50;99.90;;;;;;5058889;28;20146;-59
2023/03/06 09:30:57;;;;;;;4.53;0.95;;;5.40;99.90;;;;;;5044298;28;20106;-61
2023/03/06 09:33:23;;;;;;;2.22;0.80;;;5.40;99.90;;;;;;5047158;28;20461;-61
2023/03/06 09:35:57;;;;;;;4.72;0.57;;;5.50;99.90;;;;;;5051486;28;20123;-61
2023/03/06 09:38:26;;;;;;;3.55;1.13;;;5.50;99.90;;;;;;5026891;28;20040;-60
2023/03/06 09:40:57;;;;;;;4.95;0.98;;;5.70;99.90;;;;;;5029559;28;20041;-61
2023/03/06 09:43:34;;;;;;;4.63;1.10;;;5.80;99.90;;;;;;5046311;28;20059;-63
2023/03/06 09:46:26;;;;;;;4.05;0.95;;;6.00;99.90;;;;;;5056801;28;20053;-60
2023/03/06 09:49:24;;;;;;;1.42;0.70;;;6.20;99.90;;;;;;5034823;28;20511;-61
2023/03/06 09:51:52;;;;;;;3.58;0.88;;;6.20;99.90;;;;;;5037787;28;20049;-60
2023/03/06 09:54:32;;;;;;;2.42;0.65;;;6.20;99.90;;;;;;5057872;28;20064;-62
2023/03/06 09:56:58;;;;;;;2.17;0.70;;;6.00;99.90;;;;;;5050269;28;20036;-61
2023/03/06 09:59:24;;;;;;;1.67;0.85;;;6.20;99.90;;;;;;5066130;28;20032;-62
2023/03/06 10:02:14;;;;;;;2.95;0.95;;;6.00;99.90;;;;;;5046950;28;20048;-64
2023/03/06 10:04:58;;;;;;;1.98;0.60;;;6.10;99.90;;;;;;5053022;28;20044;-63
2023/03/06 10:07:32;;;;;;;5.88;0.80;;;6.30;99.90;;;;;;5044213;28;20041;-58
2023/03/06 10:10:06;;;;;;;6.82;1.50;;;6.40;99.90;;;;;;5066043;28;20041;-62
2023/03/06 10:12:39;;;;;;;3.05;0.40;;;6.40;99.90;;;;;;5061779;28;20039;-61
2023/03/06 10:15:25;;;;;;;3.90;0.52;;;6.10;99.90;;;;;;5051189;28;20056;-61
2023/03/06 10:17:52;;;;;;;2.45;0.55;;;6.00;99.90;;;;;;5046523;28;20072;-61
2023/03/06 10:20:22;;;;;;;2.92;0.55;;;6.00;99.90;;;;;;5056192;28;20040;-59
2023/03/06 10:22:51;;;;;;;3.55;0.77;;;6.10;99.90;;;;;;5039706;28;20063;-61
2023/03/06 10:25:36;;;;;;;3.40;0.57;;;6.20;99.90;;;;;;5048777;28;20076;-61
2023/03/06 10:28:14;;;;;;;1.95;0.55;;;6.30;99.90;;;;;;5057722;28;20086;-62
2023/03/06 10:31:05;;;;;;;4.97;0.55;;;6.40;99.90;;;;;;5057017;28;20047;-60
2023/03/06 10:33:55;;;;;;;3.90;1.08;;;6.50;99.90;;;;;;5053534;28;20407;-62
2023/03/06 10:36:27;;;;;;;1.42;0.43;;;6.60;99.90;;;;;;5054103;28;20052;-59
2023/03/06 10:38:55;;;;;;;3.53;0.55;;;6.60;99.90;;;;;;5057078;28;20049;-64
2023/03/06 10:41:30;;;;;;;2.03;0.47;;;6.60;99.90;;;;;;5043703;28;20045;-61
2023/03/06 10:43:58;;;;;;;2.45;0.60;;;6.80;99.90;;;;;;5056097;28;20037;-61
2023/03/06 10:46:36;;;;;;;2.85;0.43;;;7.00;99.90;;;;;;5062563;28;20076;-62
2023/03/06 10:49:22;;;;;;;1.67;0.47;;;7.00;99.90;;;;;;5059720;28;20547;-61
2023/03/06 10:51:59;;;;;;;2.65;0.38;;;7.00;99.90;;;;;;5045619;28;20052;-63
2023/03/06 10:54:27;;;;;;;4.32;0.63;;;6.80;99.90;;;;;;5056451;28;20141;-61
2023/03/06 10:56:53;;;;;;;2.05;0.70;;;6.60;99.90;;;;;;5045185;28;20051;-62
2023/03/06 10:59:28;;;;;;;1.35;0.40;;;6.40;99.90;;;;;;5047281;28;20342;-61
2023/03/06 11:01:57;;;;;;;3.30;0.60;;;6.20;99.50;;;;;;5058793;28;20044;-61
2023/03/06 11:04:23;;;;;;;3.55;0.77;;;6.10;99.90;;;;;;5051436;28;20513;-62
2023/03/06 11:07:19;;;;;;;2.63;0.40;;;6.30;99.90;;;;;;5030224;28;20133;-61
2023/03/06 11:10:15;;;;;;;2.63;0.40;;;6.50;99.90;;;;;;5037311;28;20050;-63
2023/03/06 11:12:42;;;;;;;3.97;0.50;;;6.70;99.90;;;;;;5062495;28;20044;-62
2023/03/06 11:15:13;;;;;;;1.75;0.40;;;6.70;99.90;;;;;;5062552;28;20048;-62
2023/03/06 11:18:21;;;;;;;2.00;0.50;;;6.70;99.80;;;;;;5047883;28;20534;-61
2023/03/06 11:20:50;;;;;;;3.08;0.40;;;6.80;99.70;;;;;;5043345;28;20175;-61
2023/03/06 11:23:46;;;;;;;5.15;0.55;;;7.20;99.90;;;;;;5041892;28;20101;-62
2023/03/06 11:26:14;;;;;;;2.55;0.60;;;7.50;99.90;;;;;;5053485;28;20040;-62
2023/03/06 11:28:49;;;;;;;3.90;0.70;;;7.80;99.90;;;;;;5030548;28;20094;-64
2023/03/06 11:31:14;;;;;;;2.58;0.50;;;7.90;99.90;;;;;;5040146;28;20041;-64
2023/03/06 11:33:50;;;;;;;4.10;0.80;;;7.50;99.90;;;;;;5034236;28;20047;-62
2023/03/06 11:36:52;;;;;;;2.83;0.70;;;7.70;99.90;;;;;;5048247;28;20128;-61
2023/03/06 11:39:46;;;;;;;4.35;0.80;;;7.50;99.90;;;;;;5060265;28;20052;-61
2023/03/06 11:42:24;;;;;;;;;;;7.50;99.90;;;;;;5035781;28;20049;-63
2023/03/06 11:45:15;;;;;;;2.40;0.32;;;7.60;99.50;;;;;;5039590;28;20401;-62
2023/03/06 11:47:48;;;;;;;2.35;0.45;;;7.70;99.90;;;;;;5055247;28;20094;-63
2023/03/06 11:50:52;;;;;;;1.88;0.50;;;7.70;99.90;;;;;;5053073;28;20486;-62
2023/03/06 11:53:29;;;;;;;1.52;0.30;;;7.80;99.90;;;;;;5066015;28;20538;-63
2023/03/06 11:56:06;;;;;;;1.83;0.40;;;7.90;99.90;;;;;;5055930;28;20384;-62
2023/03/06 11:58:57;;;;;;;2.35;0.60;;;7.90;99.90;;;;;;5057380;28;20040;-64
2023/03/06 12:01:23;;;;;;;3.33;0.50;;;8.10;99.90;;;;;;5043152;28;20040;-62
2023/03/06 12:04:11;;;;;;;2.28;0.52;;;8.10;99.90;;;;;;5057731;28;20036;-62
2023/03/06 12:06:53;;;;;;;2.72;0.50;;;8.10;99.90;;;;;;5060863;28;20036;-62
2023/03/06 12:09:25;;;;;;;3.30;0.73;;;7.90;99.10;;;;;;5056041;28;20086;-63
2023/03/06 12:12:07;;;;;;;3.10;0.60;;;7.80;99.90;;;;;;5052675;28;20303;-63
2023/03/06 12:14:50;;;;;;;2.72;0.52;;;7.60;99.80;;;;;;5053087;28;20485;-63
2023/03/06 12:17:22;;;;;;;2.70;0.50;;;7.70;99.90;;;;;;5035425;28;20067;-62
2023/03/06 12:20:06;;;;;;;3.95;0.40;;;7.70;99.90;;;;;;5047248;28;20135;-64
2023/03/06 12:22:53;;;;;;;3.10;0.75;;;7.70;99.90;;;;;;5037851;28;20045;-61
2023/03/06 12:25:40;;;;;;;3.67;0.60;;;7.90;99.90;;;;;;5061121;28;20048;-61
2023/03/06 12:28:09;;;;;;;1.55;0.30;;;8.00;99.90;;;;;;5035683;28;20114;-63
2023/03/06 12:30:56;;;;;;;2.22;0.50;;;8.10;99.90;;;;;;5062477;28;20040;-62
2023/03/06 12:34:01;;;;;;;1.90;0.45;;;8.30;99.90;;;;;;5042668;28;20080;-61
2023/03/06 12:36:51;;;;;;;2.55;0.45;;;8.40;99.90;;;;;;4985852;28;20102;-62
2023/03/06 12:39:29;;;;;;;2.40;0.50;;;8.40;99.90;;;;;;5051604;28;20082;-63
2023/03/06 12:42:17;;;;;;;3.22;0.43;;;8.40;99.60;;;;;;5033628;28;20040;-63
2023/03/06 12:45:01;;;;;;;1.10;0.55;;;8.40;99.60;;;;;;5043611;28;20032;-63
2023/03/06 12:47:35;;;;;;;0.93;0.40;;;8.40;99.30;;;;;;5032077;28;20140;-61
2023/03/06 12:50:12;;;;;;;1.85;0.60;;;8.20;98.80;;;;;;5041994;28;20105;-62
2023/03/06 12:52:38;;;;;;;1.95;0.52;;;8.20;99.50;;;;;;5040498;28;20583;-62
2023/03/06 12:55:06;;;;;;;2.60;0.88;;;8.30;99.60;;;;;;5038551;28;20106;-62
2023/03/06 12:57:32;;;;;;;1.75;0.50;;;8.30;99.90;;;;;;5044114;28;20040;-62
2023/03/06 13:00:01;;;;;;;1.95;0.50;;;8.30;99.90;;;;;;5040010;28;20135;-62
2023/03/06 13:03:03;;;;;;;2.90;0.50;;;8.40;99.90;;;;;;5031953;28;20049;-64
2023/03/06 13:05:35;;;;;;;3.08;0.60;;;8.40;99.60;;;;;;5058824;28;20036;-62
2023/03/06 13:11:26;;;;;;;3.38;0.60;;;8.30;98.70;;;;;;5045294;28;20060;-62
2023/03/06 13:13:52;;;;;;;3.30;0.47;;;8.10;98.20;;;;;;5000973;28;20056;-62
2023/03/06 13:16:31;;;;;;;3.65;0.60;;;8.00;98.40;;;;;;5014447;28;20037;-62